sensor_id;sensor_type;location;lat;lon;timestamp;pressure;altitude;pressure_sealevel;temperature;humidity
28628;BME280;15815;46.760;19.604;2024-01-15T00:02:08;99198.38;;;-1.56;87.34
28628;BME280;15815;46.760;19.604;2024-01-15T00:04:41;99207.00;;;-1.58;87.70
28628;BME280;15815;46.760;19.604;2024-01-15T00:07:07;99194.63;;;-1.64;88.60
28628;BME280;15815;46.760;19.604;2024-01-15T00:09:37;99167.00;;;-1.79;89.02
28628;BME280;15815;46.760;19.604;2024-01-15T00:12:03;99161.94;;;-1.77;88.76
28628;BME280;15815;46.760;19.604;2024-01-15T00:14:37;99151.09;;;-1.86;88.33
28628;BME280;15815;46.760;19.604;2024-01-15T00:17:02;99181.88;;;-1.68;88.08
28628;BME280;15815;46.760;19.604;2024-01-15T00:19:28;99183.88;;;-1.81;87.40
28628;BME280;15815;46.760;19.604;2024-01-15T00:21:53;99154.50;;;-2.17;87.97
28628;BME280;15815;46.760;19.604;2024-01-15T00:24:19;99189.66;;;-1.98;87.64
28628;BME280;15815;46.760;19.604;2024-01-15T00:26:45;99189.41;;;-1.93;88.65
28628;BME280;15815;46.760;19.604;2024-01-15T00:29:10;99180.25;;;-1.97;88.64
28628;BME280;15815;46.760;19.604;2024-01-15T00:31:39;99147.72;;;-2.20;88.69
28628;BME280;15815;46.760;19.604;2024-01-15T00:34:04;99169.84;;;-2.04;88.43
28628;BME280;15815;46.760;19.604;2024-01-15T00:36:30;99161.69;;;-2.00;88.56
28628;BME280;15815;46.760;19.604;2024-01-15T00:38:55;99174.34;;;-2.11;87.69
28628;BME280;15815;46.760;19.604;2024-01-15T00:41:21;99160.56;;;-2.11;88.31
28628;BME280;15815;46.760;19.604;2024-01-15T00:43:46;99162.97;;;-2.10;88.19
28628;BME280;15815;46.760;19.604;2024-01-15T00:46:12;99131.25;;;-2.32;88.67
28628;BME280;15815;46.760;19.604;2024-01-15T00:48:38;99150.81;;;-2.09;88.77
28628;BME280;15815;46.760;19.604;2024-01-15T00:51:04;99149.75;;;-2.04;88.69
28628;BME280;15815;46.760;19.604;2024-01-15T00:53:31;99129.16;;;-2.23;89.21
28628;BME280;15815;46.760;19.604;2024-01-15T00:55:57;99137.84;;;-2.08;89.50
28628;BME280;15815;46.760;19.604;2024-01-15T00:58:35;99139.44;;;-2.07;89.13
28628;BME280;15815;46.760;19.604;2024-01-15T01:01:01;99134.53;;;-2.14;90.08
28628;BME280;15815;46.760;19.604;2024-01-15T01:03:26;99097.44;;;-2.32;89.73
28628;BME280;15815;46.760;19.604;2024-01-15T01:05:52;99106.94;;;-2.30;90.33
28628;BME280;15815;46.760;19.604;2024-01-15T01:08:18;99093.41;;;-2.35;89.81
28628;BME280;15815;46.760;19.604;2024-01-15T01:10:45;99131.53;;;-2.09;90.11
28628;BME280;15815;46.760;19.604;2024-01-15T01:13:12;99120.69;;;-2.17;89.03
28628;BME280;15815;46.760;19.604;2024-01-15T01:15:38;99125.03;;;-2.16;89.75
28628;BME280;15815;46.760;19.604;2024-01-15T01:18:04;99113.34;;;-2.26;90.01
28628;BME280;15815;46.760;19.604;2024-01-15T01:20:31;99082.44;;;-2.47;89.54
28628;BME280;15815;46.760;19.604;2024-01-15T01:22:57;99119.53;;;-2.29;90.18
28628;BME280;15815;46.760;19.604;2024-01-15T01:25:22;99113.47;;;-2.34;90.06
28628;BME280;15815;46.760;19.604;2024-01-15T01:27:48;99110.03;;;-2.31;89.99
28628;BME280;15815;46.760;19.604;2024-01-15T01:30:25;99080.38;;;-2.50;89.15
28628;BME280;15815;46.760;19.604;2024-01-15T01:32:51;99091.84;;;-2.48;88.84
28628;BME280;15815;46.760;19.604;2024-01-15T01:35:17;99099.28;;;-2.49;89.43
28628;BME280;15815;46.760;19.604;2024-01-15T01:37:43;99090.69;;;-2.47;89.72
28628;BME280;15815;46.760;19.604;2024-01-15T01:40:08;99040.56;;;-2.81;89.78
28628;BME280;15815;46.760;19.604;2024-01-15T01:45:50;99083.63;;;-2.60;90.37
28628;BME280;15815;46.760;19.604;2024-01-15T01:48:24;99057.97;;;-2.64;89.77
28628;BME280;15815;46.760;19.604;2024-01-15T01:50:50;99056.94;;;-2.72;89.68
28628;BME280;15815;46.760;19.604;2024-01-15T01:53:17;99045.41;;;-2.90;90.75
28628;BME280;15815;46.760;19.604;2024-01-15T01:55:43;99083.06;;;-2.78;90.61
28628;BME280;15815;46.760;19.604;2024-01-15T01:58:32;99073.44;;;-2.72;91.04
28628;BME280;15815;46.760;19.604;2024-01-15T02:01:00;99057.97;;;-2.76;91.38
28628;BME280;15815;46.760;19.604;2024-01-15T02:03:27;99064.16;;;-2.67;90.14
28628;BME280;15815;46.760;19.604;2024-01-15T02:05:53;99051.31;;;-2.75;89.48
28628;BME280;15815;46.760;19.604;2024-01-15T02:08:22;99017.00;;;-2.94;89.72
28628;BME280;15815;46.760;19.604;2024-01-15T02:10:48;99049.25;;;-2.78;89.85
28628;BME280;15815;46.760;19.604;2024-01-15T02:13:38;99063.25;;;-2.71;89.69
28628;BME280;15815;46.760;19.604;2024-01-15T02:16:05;99056.25;;;-2.69;90.13
28628;BME280;15815;46.760;19.604;2024-01-15T02:18:49;99052.25;;;-2.71;89.62
28628;BME280;15815;46.760;19.604;2024-01-15T02:21:15;99045.59;;;-2.83;89.70
28628;BME280;15815;46.760;19.604;2024-01-15T02:23:41;99037.59;;;-2.88;89.29
28628;BME280;15815;46.760;19.604;2024-01-15T02:26:10;99036.09;;;-2.85;90.19
28628;BME280;15815;46.760;19.604;2024-01-15T02:28:36;99025.56;;;-2.83;90.37
28628;BME280;15815;46.760;19.604;2024-01-15T02:31:04;99024.31;;;-2.86;91.04
28628;BME280;15815;46.760;19.604;2024-01-15T02:33:29;99016.75;;;-2.89;89.51
28628;BME280;15815;46.760;19.604;2024-01-15T02:35:55;99008.31;;;-2.96;90.20
28628;BME280;15815;46.760;19.604;2024-01-15T02:38:20;99004.28;;;-2.98;89.70
28628;BME280;15815;46.760;19.604;2024-01-15T02:40:46;99002.34;;;-2.98;89.90
28628;BME280;15815;46.760;19.604;2024-01-15T02:43:23;98993.88;;;-3.05;90.28
28628;BME280;15815;46.760;19.604;2024-01-15T02:45:49;98968.03;;;-3.28;90.36
28628;BME280;15815;46.760;19.604;2024-01-15T02:48:15;98976.03;;;-3.23;90.06
28628;BME280;15815;46.760;19.604;2024-01-15T02:50:43;98979.91;;;-3.12;91.01
28628;BME280;15815;46.760;19.604;2024-01-15T02:53:09;98983.00;;;-3.14;90.58
28628;BME280;15815;46.760;19.604;2024-01-15T02:55:35;98987.09;;;-3.07;90.95
28628;BME280;15815;46.760;19.604;2024-01-15T02:58:16;98978.56;;;-3.18;90.40
28628;BME280;15815;46.760;19.604;2024-01-15T03:00:44;98977.28;;;-3.21;90.65
28628;BME280;15815;46.760;19.604;2024-01-15T03:03:10;98955.41;;;-3.29;90.99
28628;BME280;15815;46.760;19.604;2024-01-15T03:05:39;98977.06;;;-3.16;90.36
28628;BME280;15815;46.760;19.604;2024-01-15T03:08:08;98951.22;;;-3.39;89.93
28628;BME280;15815;46.760;19.604;2024-01-15T03:10:33;98966.75;;;-3.19;91.36
28628;BME280;15815;46.760;19.604;2024-01-15T03:12:59;98963.66;;;-3.17;90.68
28628;BME280;15815;46.760;19.604;2024-01-15T03:15:24;98954.22;;;-3.04;91.06
28628;BME280;15815;46.760;19.604;2024-01-15T03:17:50;98952.19;;;-3.07;91.46
28628;BME280;15815;46.760;19.604;2024-01-15T03:20:15;98934.13;;;-3.20;90.79
28628;BME280;15815;46.760;19.604;2024-01-15T03:22:43;98943.72;;;-3.14;91.47
28628;BME280;15815;46.760;19.604;2024-01-15T03:25:10;98950.13;;;-3.10;91.18
28628;BME280;15815;46.760;19.604;2024-01-15T03:27:36;98897.06;;;-3.38;90.85
28628;BME280;15815;46.760;19.604;2024-01-15T03:30:01;98937.09;;;-3.13;91.37
28628;BME280;15815;46.760;19.604;2024-01-15T03:32:27;98938.34;;;-3.11;90.99
28628;BME280;15815;46.760;19.604;2024-01-15T03:34:56;98927.47;;;-3.19;90.51
28628;BME280;15815;46.760;19.604;2024-01-15T03:37:21;98925.44;;;-3.22;89.31
28628;BME280;15815;46.760;19.604;2024-01-15T03:39:47;98922.69;;;-3.22;89.46
28628;BME280;15815;46.760;19.604;2024-01-15T03:42:16;98927.47;;;-3.19;89.73
28628;BME280;15815;46.760;19.604;2024-01-15T03:44:55;98928.38;;;-3.15;89.63
28628;BME280;15815;46.760;19.604;2024-01-15T03:47:21;98922.44;;;-3.29;90.12
28628;BME280;15815;46.760;19.604;2024-01-15T03:49:48;98935.28;;;-3.21;90.29
28628;BME280;15815;46.760;19.604;2024-01-15T03:52:13;98928.38;;;-3.15;90.94
28628;BME280;15815;46.760;19.604;2024-01-15T03:54:41;98906.50;;;-3.12;90.57
28628;BME280;15815;46.760;19.604;2024-01-15T03:57:07;98900.41;;;-3.05;90.51
28628;BME280;15815;46.760;19.604;2024-01-15T03:59:33;98908.19;;;-2.95;91.48
28628;BME280;15815;46.760;19.604;2024-01-15T04:02:04;98898.28;;;-2.84;91.72
28628;BME280;15815;46.760;19.604;2024-01-15T04:04:29;98892.34;;;-2.86;91.27
28628;BME280;15815;46.760;19.604;2024-01-15T04:06:55;98894.13;;;-2.77;91.57
28628;BME280;15815;46.760;19.604;2024-01-15T04:09:26;98898.91;;;-2.74;91.59
28628;BME280;15815;46.760;19.604;2024-01-15T04:11:51;98891.94;;;-2.72;90.95
28628;BME280;15815;46.760;19.604;2024-01-15T04:14:17;98881.75;;;-2.71;90.94
28628;BME280;15815;46.760;19.604;2024-01-15T04:16:43;98841.44;;;-3.07;90.43
28628;BME280;15815;46.760;19.604;2024-01-15T04:19:08;98865.97;;;-2.87;91.11
28628;BME280;15815;46.760;19.604;2024-01-15T04:21:34;98890.63;;;-2.62;91.34
28628;BME280;15815;46.760;19.604;2024-01-15T04:23:59;98884.69;;;-2.64;91.64
28628;BME280;15815;46.760;19.604;2024-01-15T04:26:25;98881.03;;;-2.68;92.24
28628;BME280;15815;46.760;19.604;2024-01-15T04:28:50;98902.00;;;-2.48;92.24
28628;BME280;15815;46.760;19.604;2024-01-15T04:31:23;98899.91;;;-2.39;92.78
28628;BME280;15815;46.760;19.604;2024-01-15T04:33:49;98892.28;;;-2.30;93.60
28628;BME280;15815;46.760;19.604;2024-01-15T04:36:15;98886.50;;;-2.25;92.76
28628;BME280;15815;46.760;19.604;2024-01-15T04:38:41;98843.28;;;-2.40;93.23
28628;BME280;15815;46.760;19.604;2024-01-15T04:41:11;98886.34;;;-2.16;92.95
28628;BME280;15815;46.760;19.604;2024-01-15T04:43:36;98891.41;;;-2.02;93.18
28628;BME280;15815;46.760;19.604;2024-01-15T04:46:02;98883.59;;;-2.00;93.01
28628;BME280;15815;46.760;19.604;2024-01-15T04:48:28;98857.41;;;-2.10;93.55
28628;BME280;15815;46.760;19.604;2024-01-15T04:50:54;98881.91;;;-1.89;93.34
28628;BME280;15815;46.760;19.604;2024-01-15T04:53:23;98883.16;;;-1.87;93.11
28628;BME280;15815;46.760;19.604;2024-01-15T04:55:48;98882.50;;;-1.80;94.14
28628;BME280;15815;46.760;19.604;2024-01-15T04:58:24;98874.31;;;-1.76;93.42
28628;BME280;15815;46.760;19.604;2024-01-15T05:00:50;98883.63;;;-1.65;93.50
28628;BME280;15815;46.760;19.604;2024-01-15T05:03:18;98868.09;;;-1.73;93.42
28628;BME280;15815;46.760;19.604;2024-01-15T05:05:44;98874.13;;;-1.68;93.48
28628;BME280;15815;46.760;19.604;2024-01-15T05:08:10;98863.84;;;-1.71;93.47
28628;BME280;15815;46.760;19.604;2024-01-15T05:10:36;98849.91;;;-1.78;92.90
28628;BME280;15815;46.760;19.604;2024-01-15T05:13:05;98887.97;;;-1.48;93.61
28628;BME280;15815;46.760;19.604;2024-01-15T05:15:31;98873.81;;;-1.47;93.49
28628;BME280;15815;46.760;19.604;2024-01-15T05:17:57;98859.47;;;-1.56;93.93
28628;BME280;15815;46.760;19.604;2024-01-15T05:20:23;98865.06;;;-1.52;94.17
28628;BME280;15815;46.760;19.604;2024-01-15T05:22:52;98881.19;;;-1.35;94.15
28628;BME280;15815;46.760;19.604;2024-01-15T05:25:18;98855.78;;;-1.44;94.38
28628;BME280;15815;46.760;19.604;2024-01-15T05:27:45;98897.72;;;-1.35;93.90
28628;BME280;15815;46.760;19.604;2024-01-15T05:30:17;98881.72;;;-1.45;94.86
28628;BME280;15815;46.760;19.604;2024-01-15T05:32:43;98899.50;;;-1.43;94.95
28628;BME280;15815;46.760;19.604;2024-01-15T05:35:08;98885.66;;;-1.46;95.83
28628;BME280;15815;46.760;19.604;2024-01-15T05:37:34;98905.72;;;-1.30;95.77
28628;BME280;15815;46.760;19.604;2024-01-15T05:40:00;98912.25;;;-1.19;96.83
28628;BME280;15815;46.760;19.604;2024-01-15T05:42:25;98897.31;;;-1.18;96.01
28628;BME280;15815;46.760;19.604;2024-01-15T05:44:53;98907.94;;;-1.01;95.48
28628;BME280;15815;46.760;19.604;2024-01-15T05:47:21;98908.06;;;-0.94;95.67
28628;BME280;15815;46.760;19.604;2024-01-15T05:49:47;98915.31;;;-0.85;95.96
28628;BME280;15815;46.760;19.604;2024-01-15T05:52:13;98896.44;;;-0.83;95.78
28628;BME280;15815;46.760;19.604;2024-01-15T05:54:39;98901.72;;;-0.78;95.40
28628;BME280;15815;46.760;19.604;2024-01-15T05:57:11;98891.53;;;-0.74;96.11
28628;BME280;15815;46.760;19.604;2024-01-15T05:59:36;98896.91;;;-0.81;96.63
28628;BME280;15815;46.760;19.604;2024-01-15T06:02:02;98881.22;;;-0.77;96.21
28628;BME280;15815;46.760;19.604;2024-01-15T06:04:29;98896.03;;;-0.66;96.39
28628;BME280;15815;46.760;19.604;2024-01-15T06:06:55;98888.13;;;-0.68;96.28
28628;BME280;15815;46.760;19.604;2024-01-15T06:09:20;98887.75;;;-0.66;96.51
28628;BME280;15815;46.760;19.604;2024-01-15T06:11:46;98887.59;;;-0.54;96.29
28628;BME280;15815;46.760;19.604;2024-01-15T06:14:13;98890.78;;;-0.52;96.14
28628;BME280;15815;46.760;19.604;2024-01-15T06:16:38;98886.88;;;-0.51;96.31
28628;BME280;15815;46.760;19.604;2024-01-15T06:19:04;98876.28;;;-0.68;97.01
28628;BME280;15815;46.760;19.604;2024-01-15T06:21:30;98894.78;;;-0.49;96.68
28628;BME280;15815;46.760;19.604;2024-01-15T06:23:56;98876.69;;;-0.47;96.77
28628;BME280;15815;46.760;19.604;2024-01-15T06:26:24;98873.06;;;-0.51;97.59
28628;BME280;15815;46.760;19.604;2024-01-15T06:28:55;98881.78;;;-0.49;97.52
28628;BME280;15815;46.760;19.604;2024-01-15T06:31:20;98866.22;;;-0.57;97.79
28628;BME280;15815;46.760;19.604;2024-01-15T06:33:46;98881.47;;;-0.44;97.60
28628;BME280;15815;46.760;19.604;2024-01-15T06:36:24;98865.59;;;-0.50;97.81
28628;BME280;15815;46.760;19.604;2024-01-15T06:38:49;98868.91;;;-0.41;97.38
28628;BME280;15815;46.760;19.604;2024-01-15T06:41:15;98890.97;;;-0.22;97.07
28628;BME280;15815;46.760;19.604;2024-01-15T06:43:58;98873.16;;;-0.24;97.15
28628;BME280;15815;46.760;19.604;2024-01-15T06:46:24;98879.72;;;-0.10;96.56
28628;BME280;15815;46.760;19.604;2024-01-15T06:48:52;98875.94;;;-0.24;96.17
28628;BME280;15815;46.760;19.604;2024-01-15T06:51:18;98860.38;;;-0.33;96.83
28628;BME280;15815;46.760;19.604;2024-01-15T06:53:44;98880.19;;;-0.04;96.41
28628;BME280;15815;46.760;19.604;2024-01-15T06:56:10;98900.47;;;0.04;96.21
28628;BME280;15815;46.760;19.604;2024-01-15T06:58:37;98889.97;;;-0.10;96.96
28628;BME280;15815;46.760;19.604;2024-01-15T07:01:02;98911.22;;;0.09;96.82
28628;BME280;15815;46.760;19.604;2024-01-15T07:03:28;98911.59;;;0.07;96.39
28628;BME280;15815;46.760;19.604;2024-01-15T07:05:54;98920.19;;;0.02;97.24
28628;BME280;15815;46.760;19.604;2024-01-15T07:08:19;98908.47;;;0.09;96.80
28628;BME280;15815;46.760;19.604;2024-01-15T07:10:45;98911.16;;;0.28;96.52
28628;BME280;15815;46.760;19.604;2024-01-15T07:13:10;98908.03;;;0.29;96.17
28628;BME280;15815;46.760;19.604;2024-01-15T07:15:36;98919.13;;;0.33;96.12
28628;BME280;15815;46.760;19.604;2024-01-15T07:18:01;98923.13;;;0.36;96.13
28628;BME280;15815;46.760;19.604;2024-01-15T07:20:27;98928.16;;;0.30;96.22
28628;BME280;15815;46.760;19.604;2024-01-15T07:22:53;98912.91;;;0.40;96.08
28628;BME280;15815;46.760;19.604;2024-01-15T07:25:19;98924.06;;;0.47;96.24
28628;BME280;15815;46.760;19.604;2024-01-15T07:27:44;98938.25;;;0.45;96.21
28628;BME280;15815;46.760;19.604;2024-01-15T07:30:16;98944.84;;;0.60;96.32
28628;BME280;15815;46.760;19.604;2024-01-15T07:32:45;98931.75;;;0.57;95.98
28628;BME280;15815;46.760;19.604;2024-01-15T07:35:10;98948.50;;;0.68;95.89
28628;BME280;15815;46.760;19.604;2024-01-15T07:37:36;98951.00;;;0.76;96.01
28628;BME280;15815;46.760;19.604;2024-01-15T07:40:01;98931.75;;;0.57;96.16
28628;BME280;15815;46.760;19.604;2024-01-15T07:42:28;98951.25;;;0.68;96.01
28628;BME280;15815;46.760;19.604;2024-01-15T07:44:54;98968.06;;;0.82;96.36
28628;BME280;15815;46.760;19.604;2024-01-15T07:47:19;98949.06;;;0.80;95.90
28628;BME280;15815;46.760;19.604;2024-01-15T07:49:45;98957.13;;;0.89;96.20
28628;BME280;15815;46.760;19.604;2024-01-15T07:52:10;98949.63;;;0.89;96.77
28628;BME280;15815;46.760;19.604;2024-01-15T07:54:36;98952.91;;;0.99;96.38
28628;BME280;15815;46.760;19.604;2024-01-15T07:57:02;98949.72;;;0.97;96.07
28628;BME280;15815;46.760;19.604;2024-01-15T07:59:28;98972.50;;;1.13;95.93
28628;BME280;15815;46.760;19.604;2024-01-15T08:01:55;98964.81;;;1.03;96.18
28628;BME280;15815;46.760;19.604;2024-01-15T08:04:20;98946.47;;;0.91;96.06
28628;BME280;15815;46.760;19.604;2024-01-15T08:06:46;98960.44;;;1.02;96.12
28628;BME280;15815;46.760;19.604;2024-01-15T08:09:12;98945.78;;;0.98;96.33
28628;BME280;15815;46.760;19.604;2024-01-15T08:11:41;98960.50;;;1.05;96.01
28628;BME280;15815;46.760;19.604;2024-01-15T08:14:06;98961.16;;;0.95;96.58
28628;BME280;15815;46.760;19.604;2024-01-15T08:16:32;98985.25;;;1.21;96.21
28628;BME280;15815;46.760;19.604;2024-01-15T08:18:57;98966.09;;;1.09;96.35
28628;BME280;15815;46.760;19.604;2024-01-15T08:21:23;98989.16;;;1.16;96.06
28628;BME280;15815;46.760;19.604;2024-01-15T08:23:48;98993.97;;;1.23;95.82
28628;BME280;15815;46.760;19.604;2024-01-15T08:26:14;98966.38;;;1.30;95.94
28628;BME280;15815;46.760;19.604;2024-01-15T08:28:40;98961.47;;;1.16;96.06
28628;BME280;15815;46.760;19.604;2024-01-15T08:31:07;98953.72;;;1.29;96.08
28628;BME280;15815;46.760;19.604;2024-01-15T08:33:33;98971.13;;;1.30;95.56
28628;BME280;15815;46.760;19.604;2024-01-15T08:35:59;98976.41;;;1.38;95.92
28628;BME280;15815;46.760;19.604;2024-01-15T08:38:24;98989.53;;;1.45;95.53
28628;BME280;15815;46.760;19.604;2024-01-15T08:40:59;98963.34;;;1.39;95.59
28628;BME280;15815;46.760;19.604;2024-01-15T08:43:24;98983.19;;;1.44;95.19
28628;BME280;15815;46.760;19.604;2024-01-15T08:45:50;99001.03;;;1.47;95.80
28628;BME280;15815;46.760;19.604;2024-01-15T08:48:16;99001.09;;;1.54;95.80
28628;BME280;15815;46.760;19.604;2024-01-15T08:50:41;99003.91;;;1.58;95.39
28628;BME280;15815;46.760;19.604;2024-01-15T08:53:07;99005.38;;;1.48;95.18
28628;BME280;15815;46.760;19.604;2024-01-15T08:55:33;98997.41;;;1.43;95.32
28628;BME280;15815;46.760;19.604;2024-01-15T08:57:58;99006.94;;;1.45;94.91
28628;BME280;15815;46.760;19.604;2024-01-15T09:00:24;99035.56;;;1.57;95.42
28628;BME280;15815;46.760;19.604;2024-01-15T09:02:49;99032.03;;;1.60;95.64
28628;BME280;15815;46.760;19.604;2024-01-15T09:05:15;99044.91;;;1.75;95.48
28628;BME280;15815;46.760;19.604;2024-01-15T09:07:41;99042.59;;;1.80;95.07
28628;BME280;15815;46.760;19.604;2024-01-15T09:10:07;99029.47;;;1.74;95.00
28628;BME280;15815;46.760;19.604;2024-01-15T09:12:32;99028.31;;;1.78;94.45
28628;BME280;15815;46.760;19.604;2024-01-15T09:14:58;99036.69;;;1.82;94.59
28628;BME280;15815;46.760;19.604;2024-01-15T09:17:23;99020.34;;;1.73;94.67
28628;BME280;15815;46.760;19.604;2024-01-15T09:19:49;99026.97;;;1.95;94.85
28628;BME280;15815;46.760;19.604;2024-01-15T09:22:15;99021.72;;;1.90;94.15
28628;BME280;15815;46.760;19.604;2024-01-15T09:24:41;99033.25;;;1.92;94.25
28628;BME280;15815;46.760;19.604;2024-01-15T09:27:07;99046.47;;;2.06;94.41
28628;BME280;15815;46.760;19.604;2024-01-15T09:29:32;99002.31;;;1.90;94.35
28628;BME280;15815;46.760;19.604;2024-01-15T09:31:58;98997.16;;;1.89;94.69
28628;BME280;15815;46.760;19.604;2024-01-15T09:34:23;99003.69;;;2.03;94.21
28628;BME280;15815;46.760;19.604;2024-01-15T09:36:49;99010.47;;;2.09;94.29
28628;BME280;15815;46.760;19.604;2024-01-15T09:39:15;98994.31;;;2.18;94.50
28628;BME280;15815;46.760;19.604;2024-01-15T09:41:40;98999.97;;;2.26;94.89
28628;BME280;15815;46.760;19.604;2024-01-15T09:44:07;99000.34;;;2.24;93.83
28628;BME280;15815;46.760;19.604;2024-01-15T09:46:35;99007.91;;;2.27;93.96
28628;BME280;15815;46.760;19.604;2024-01-15T09:49:01;98992.72;;;2.17;93.73
28628;BME280;15815;46.760;19.604;2024-01-15T09:51:26;98992.69;;;2.14;93.46
28628;BME280;15815;46.760;19.604;2024-01-15T09:53:55;98988.34;;;2.13;94.32
28628;BME280;15815;46.760;19.604;2024-01-15T09:56:20;99002.38;;;2.31;94.09
28628;BME280;15815;46.760;19.604;2024-01-15T09:58:46;99003.19;;;2.31;93.32
28628;BME280;15815;46.760;19.604;2024-01-15T10:01:12;99001.97;;;2.29;93.54
28628;BME280;15815;46.760;19.604;2024-01-15T10:03:39;98995.25;;;2.30;93.57
28628;BME280;15815;46.760;19.604;2024-01-15T10:06:07;98986.94;;;2.30;93.16
28628;BME280;15815;46.760;19.604;2024-01-15T10:08:36;98999.25;;;2.36;92.95
28628;BME280;15815;46.760;19.604;2024-01-15T10:11:02;98988.94;;;2.33;93.29
28628;BME280;15815;46.760;19.604;2024-01-15T10:13:30;98981.78;;;2.28;93.19
28628;BME280;15815;46.760;19.604;2024-01-15T10:15:55;98985.41;;;2.36;92.71
28628;BME280;15815;46.760;19.604;2024-01-15T10:18:21;98970.31;;;2.33;92.81
28628;BME280;15815;46.760;19.604;2024-01-15T10:20:47;98959.19;;;2.26;91.98
28628;BME280;15815;46.760;19.604;2024-01-15T10:23:15;98981.91;;;2.46;92.16
28628;BME280;15815;46.760;19.604;2024-01-15T10:25:44;98983.19;;;2.52;92.40
28628;BME280;15815;46.760;19.604;2024-01-15T10:28:09;98982.03;;;2.57;91.78
28628;BME280;15815;46.760;19.604;2024-01-15T10:30:35;98969.22;;;2.45;90.62
28628;BME280;15815;46.760;19.604;2024-01-15T10:33:02;98965.41;;;2.60;90.60
28628;BME280;15815;46.760;19.604;2024-01-15T10:35:33;98971.00;;;2.67;90.86
28628;BME280;15815;46.760;19.604;2024-01-15T10:38:03;98975.84;;;2.74;91.25
28628;BME280;15815;46.760;19.604;2024-01-15T10:40:31;98978.28;;;2.83;90.89
28628;BME280;15815;46.760;19.604;2024-01-15T10:42:57;98963.91;;;2.73;90.07
28628;BME280;15815;46.760;19.604;2024-01-15T10:45:23;98969.53;;;2.81;90.41
28628;BME280;15815;46.760;19.604;2024-01-15T10:47:49;98959.63;;;2.79;90.39
28628;BME280;15815;46.760;19.604;2024-01-15T10:50:15;98955.97;;;2.68;89.17
28628;BME280;15815;46.760;19.604;2024-01-15T10:52:40;98966.38;;;2.82;89.20
28628;BME280;15815;46.760;19.604;2024-01-15T10:55:07;98956.50;;;2.88;89.25
28628;BME280;15815;46.760;19.604;2024-01-15T10:57:33;98930.69;;;2.81;89.72
28628;BME280;15815;46.760;19.604;2024-01-15T10:59:59;98939.88;;;2.92;89.27
28628;BME280;15815;46.760;19.604;2024-01-15T11:02:25;98924.03;;;2.92;88.42
28628;BME280;15815;46.760;19.604;2024-01-15T11:04:51;98927.56;;;2.89;88.24
28628;BME280;15815;46.760;19.604;2024-01-15T11:07:16;98908.94;;;2.90;88.89
28628;BME280;15815;46.760;19.604;2024-01-15T11:09:42;98910.97;;;2.96;88.58
28628;BME280;15815;46.760;19.604;2024-01-15T11:12:12;98881.97;;;2.90;88.41
28628;BME280;15815;46.760;19.604;2024-01-15T11:14:48;98907.88;;;3.12;88.38
28628;BME280;15815;46.760;19.604;2024-01-15T11:17:15;98870.56;;;3.02;88.10
28628;BME280;15815;46.760;19.604;2024-01-15T11:25:18;98899.88;;;3.00;85.50
28628;BME280;15815;46.760;19.604;2024-01-15T11:27:47;98913.44;;;3.12;87.00
28628;BME280;15815;46.760;19.604;2024-01-15T11:30:13;98912.56;;;3.01;84.70
28628;BME280;15815;46.760;19.604;2024-01-15T11:32:39;98905.84;;;3.02;86.67
28628;BME280;15815;46.760;19.604;2024-01-15T11:35:07;98917.41;;;3.11;86.81
28628;BME280;15815;46.760;19.604;2024-01-15T11:42:58;98904.72;;;3.17;86.45
28628;BME280;15815;46.760;19.604;2024-01-15T11:45:25;98888.47;;;3.16;85.77
28628;BME280;15815;46.760;19.604;2024-01-15T11:48:11;98890.84;;;3.14;83.99
28628;BME280;15815;46.760;19.604;2024-01-15T11:50:40;98893.66;;;3.24;85.50
28628;BME280;15815;46.760;19.604;2024-01-15T11:53:55;98883.72;;;3.16;83.29
28628;BME280;15815;46.760;19.604;2024-01-15T11:55:58;98878.97;;;3.20;84.39
28628;BME280;15815;46.760;19.604;2024-01-15T11:58:24;98878.53;;;3.11;83.37
28628;BME280;15815;46.760;19.604;2024-01-15T12:00:51;98876.19;;;3.20;84.12
28628;BME280;15815;46.760;19.604;2024-01-15T12:03:16;98876.53;;;3.04;83.47
28628;BME280;15815;46.760;19.604;2024-01-15T12:05:42;98883.31;;;3.21;83.91
28628;BME280;15815;46.760;19.604;2024-01-15T12:08:08;98856.69;;;3.06;83.43
28628;BME280;15815;46.760;19.604;2024-01-15T12:10:34;98839.59;;;3.00;83.65
28628;BME280;15815;46.760;19.604;2024-01-15T12:13:05;98857.16;;;3.22;83.74
28628;BME280;15815;46.760;19.604;2024-01-15T12:15:34;98855.97;;;3.23;82.93
28628;BME280;15815;46.760;19.604;2024-01-15T12:18:00;98877.06;;;3.38;80.78
28628;BME280;15815;46.760;19.604;2024-01-15T12:20:27;98863.56;;;3.33;82.43
28628;BME280;15815;46.760;19.604;2024-01-15T12:22:53;98852.88;;;3.39;82.50
28628;BME280;15815;46.760;19.604;2024-01-15T12:25:19;98870.38;;;3.57;81.79
28628;BME280;15815;46.760;19.604;2024-01-15T12:27:45;98831.44;;;3.32;81.10
28628;BME280;15815;46.760;19.604;2024-01-15T12:30:12;98866.78;;;3.50;79.72
28628;BME280;15815;46.760;19.604;2024-01-15T12:32:40;98871.53;;;3.49;80.84
28628;BME280;15815;46.760;19.604;2024-01-15T12:35:06;98843.75;;;3.46;80.70
28628;BME280;15815;46.760;19.604;2024-01-15T12:37:35;98867.63;;;3.75;80.62
28628;BME280;15815;46.760;19.604;2024-01-15T12:40:01;98837.84;;;3.72;80.26
28628;BME280;15815;46.760;19.604;2024-01-15T12:42:27;98810.88;;;3.62;80.18
28628;BME280;15815;46.760;19.604;2024-01-15T12:44:56;98808.88;;;3.66;79.80
28628;BME280;15815;46.760;19.604;2024-01-15T12:47:22;98823.97;;;3.58;76.30
28628;BME280;15815;46.760;19.604;2024-01-15T12:49:48;98809.63;;;3.41;78.46
28628;BME280;15815;46.760;19.604;2024-01-15T12:52:14;98809.63;;;3.52;77.66
28628;BME280;15815;46.760;19.604;2024-01-15T12:54:42;98824.34;;;3.63;77.36
28628;BME280;15815;46.760;19.604;2024-01-15T12:57:08;98820.44;;;3.86;79.27
28628;BME280;15815;46.760;19.604;2024-01-15T12:59:33;98810.88;;;3.69;76.34
28628;BME280;15815;46.760;19.604;2024-01-15T13:01:59;98805.66;;;3.46;75.42
28628;BME280;15815;46.760;19.604;2024-01-15T13:04:25;98819.94;;;3.52;75.07
28628;BME280;15815;46.760;19.604;2024-01-15T13:06:51;98829.13;;;3.66;75.39
28628;BME280;15815;46.760;19.604;2024-01-15T13:09:17;98838.25;;;3.63;75.49